Time;durP1;ratioP1;P1;durP2;ratioP2;P2;SDS_P1;SDS_P2;PMS_P1;PMS_P2;Temp;Humidity;BMP_temperature;BMP_pressure;BME280_temperature;BME280_humidity;BME280_pressure;Samples;Min_cycle;Max_cycle;Signal;HPM_P1;HPM_P2
2023/05/11 00:00:24;;;;;;;;;;;;;;;15.80;85.06;99952.22;5085747;28;19924;-55
2023/05/11 00:02:49;;;;;;;;;;;;;;;15.85;84.75;99954.63;5092628;28;20390;-55
2023/05/11 00:05:14;;;;;;;;;;;;;;;15.70;82.33;99947.41;5092030;28;20064;-55
2023/05/11 00:07:40;;;;;;;;;;;;;;;15.79;83.74;99949.59;5092221;28;19935;-55
2023/05/11 00:10:05;;;;;;;;;;;;;;;15.73;83.66;99945.44;5092684;28;19912;-55
2023/05/11 00:12:30;;;;;;;;;;;;;;;15.80;83.79;99941.47;5091892;28;20025;-55
2023/05/11 00:14:56;;;;;;;;;;;;;;;15.79;83.28;99944.25;5091979;28;20374;-55
2023/05/11 00:17:21;;;;;;;;;;;;;;;15.78;83.70;99943.38;5091433;28;20000;-55
2023/05/11 00:19:46;;;;;;;;;;;;;;;15.79;84.05;99955.84;5092332;28;19912;-55
2023/05/11 00:22:11;;;;;;;;;;;;;;;15.75;83.61;99942.66;5091235;28;19920;-55
2023/05/11 00:24:38;;;;;;;;;;;;;;;15.70;83.98;99945.59;5092115;28;20490;-55
2023/05/11 00:27:03;;;;;;;;;;;;;;;15.70;84.12;99942.94;5091935;28;19956;-55
2023/05/11 00:29:28;;;;;;;;;;;;;;;15.69;84.27;99945.69;5090636;28;19920;-55
2023/05/11 00:31:54;;;;;;;;;;;;;;;15.66;84.24;99944.06;5090926;28;19924;-55
2023/05/11 00:34:19;;;;;;;;;;;;;;;15.59;83.82;99942.66;5090286;28;19916;-55
2023/05/11 00:36:44;;;;;;;;;;;;;;;15.52;84.15;99957.31;5090646;28;19916;-55
2023/05/11 00:39:10;;;;;;;;;;;;;;;15.47;85.10;99945.97;5091062;28;20010;-55
2023/05/11 00:41:36;;;;;;;;;;;;;;;15.41;85.96;99942.75;5090230;28;19924;-55
2023/05/11 00:44:01;;;;;;;;;;;;;;;15.38;86.21;99946.47;5091144;28;20386;-55
2023/05/11 00:46:27;;;;;;;;;;;;;;;15.35;86.38;99941.22;5090398;28;20242;-55
2023/05/11 00:48:52;;;;;;;;;;;;;;;15.30;87.72;99946.00;5091399;28;19916;-55
2023/05/11 00:51:18;;;;;;;;;;;;;;;15.26;87.17;99946.22;5077974;28;19947;-55
2023/05/11 00:53:44;;;;;;;;;;;;;;;15.20;88.14;99942.06;5088569;28;19955;-55
2023/05/11 00:56:09;;;;;;;;;;;;;;;15.20;87.68;99946.56;5091296;28;19923;-55
2023/05/11 00:58:34;;;;;;;;;;;;;;;15.18;88.69;99940.41;5090468;28;20360;-55
2023/05/11 01:01:00;;;;;;;;;;;;;;;15.16;88.98;99948.53;5091459;28;19916;-57
2023/05/11 01:03:25;;;;;;;;;;;;;;;15.12;89.83;99946.09;5091273;28;20031;-57
2023/05/11 01:06:14;;;;;;;;;;;;;;;15.09;90.16;99947.09;5090302;28;19980;-57
2023/05/11 01:08:58;;;;;;;;;;;;;;;15.10;90.87;99943.50;5091285;28;19997;-57
2023/05/11 01:11:38;;;;;;;;;;;;;;;15.13;90.47;99942.44;5090134;28;19920;-56
2023/05/11 01:14:11;;;;;;;;;;;;;;;15.13;90.98;99943.31;5090924;28;19920;-56
2023/05/11 01:16:39;;;;;;;;;;;;;;;15.04;90.62;99938.44;5091314;28;19920;-57
2023/05/11 01:19:10;;;;;;;;;;;;;;;14.99;90.33;99939.63;5091039;28;19926;-57
2023/05/11 01:21:35;;;;;;;;;;;;;;;14.98;90.98;99944.13;5090158;28;19920;-57
2023/05/11 01:24:06;;;;;;;;;;;;;;;14.95;91.46;99944.28;5090710;28;19923;-57
2023/05/11 01:26:34;;;;;;;;;;;;;;;14.93;91.83;99946.16;5089735;28;19931;-56
2023/05/11 01:29:18;;;;;;;;;;;;;;;14.92;92.38;99946.25;5090942;28;19927;-57
2023/05/11 01:31:45;;;;;;;;;;;;;;;14.89;92.42;99939.22;5089487;28;19916;-57
2023/05/11 01:34:16;;;;;;;;;;;;;;;14.87;92.94;99946.50;5090645;28;20111;-56
2023/05/11 01:36:44;;;;;;;;;;;;;;;14.85;93.70;99942.13;5090083;28;19927;-57
2023/05/11 01:39:11;;;;;;;;;;;;;;;14.84;94.43;99943.97;5090056;28;19924;-57
2023/05/11 01:41:38;;;;;;;;;;;;;;;14.87;94.46;99938.47;5090597;28;19959;-57
2023/05/11 01:44:05;;;;;;;;;;;;;;;14.88;94.53;99937.50;5090160;28;19915;-56
2023/05/11 01:46:32;;;;;;;;;;;;;;;14.91;95.36;99937.34;5089737;28;19920;-57
2023/05/11 01:48:58;;;;;;;;;;;;;;;14.94;95.06;99939.84;5090201;28;19923;-56
2023/05/11 01:51:26;;;;;;;;;;;;;;;14.96;96.08;99937.13;5090182;28;19920;-56
2023/05/11 01:53:53;;;;;;;;;;;;;;;14.98;95.30;99943.25;5086261;28;19924;-56
2023/05/11 01:56:19;;;;;;;;;;;;;;;14.99;95.79;99936.97;5090647;28;19916;-56
2023/05/11 01:58:45;;;;;;;;;;;;;;;15.00;95.04;99946.72;5089068;28;19928;-57
2023/05/11 02:01:10;;;;;;;;;;;;;;;14.97;95.10;99942.41;5079298;28;19919;-56
2023/05/11 02:03:37;;;;;;;;;;;;;;;15.00;95.16;99939.56;5090595;28;19916;-56
2023/05/11 02:06:04;;;;;;;;;;;;;;;14.96;94.26;99934.44;5090290;28;20390;-57
2023/05/11 02:08:30;;;;;;;;;;;;;;;14.96;94.07;99937.13;5089199;28;19942;-56
2023/05/11 02:10:57;;;;;;;;;;;;;;;14.97;94.73;99930.81;5089939;28;19916;-56
2023/05/11 02:13:23;;;;;;;;;;;;;;;15.01;94.73;99937.72;5089825;28;19980;-57
2023/05/11 02:15:51;;;;;;;;;;;;;;;15.00;93.52;99934.19;5090446;28;19915;-56
2023/05/11 02:18:17;;;;;;;;;;;;;;;15.01;94.00;99937.72;5089103;28;20372;-56
2023/05/11 02:20:43;;;;;;;;;;;;;;;14.98;93.29;99940.56;5089219;28;19916;-56
2023/05/11 02:23:08;;;;;;;;;;;;;;;15.02;92.66;99940.34;5088933;28;19916;-56
2023/05/11 02:25:35;;;;;;;;;;;;;;;14.99;92.55;99934.28;5088639;28;19927;-56
2023/05/11 02:28:00;;;;;;;;;;;;;;;14.99;92.06;99937.81;5089215;28;19916;-56
2023/05/11 02:30:27;;;;;;;;;;;;;;;14.96;92.49;99937.13;5088056;28;19931;-57
2023/05/11 02:32:55;;;;;;;;;;;;;;;14.97;92.27;99945.06;5089343;28;19935;-57
2023/05/11 02:35:31;;;;;;;;;;;;;;;14.94;92.24;99941.69;5090142;28;20033;-57
2023/05/11 02:37:59;;;;;;;;;;;;;;;14.94;92.77;99941.69;5071025;28;19923;-57
2023/05/11 02:40:28;;;;;;;;;;;;;;;14.97;92.47;99942.41;5090197;28;19963;-57
2023/05/11 02:42:55;;;;;;;;;;;;;;;15.02;92.11;99937.66;5088511;28;19923;-57
2023/05/11 02:45:22;;;;;;;;;;;;;;;15.05;92.55;99945.53;5071736;28;20474;-56
2023/05/11 02:47:52;;;;;;;;;;;;;;;15.09;91.83;99941.75;5081857;28;20005;-57
2023/05/11 02:50:18;;;;;;;;;;;;;;;15.12;92.52;99946.09;5089148;28;20053;-57
2023/05/11 02:52:45;;;;;;;;;;;;;;;15.12;92.62;99944.25;5089077;28;19927;-57
2023/05/11 02:55:12;;;;;;;;;;;;;;;15.13;92.16;99943.31;5087851;28;19923;-57
2023/05/11 02:57:37;;;;;;;;;;;;;;;15.15;91.44;99940.56;5081363;28;19970;-57
2023/05/11 03:00:03;;;;;;;;;;;;;;;15.13;91.84;99931.72;5069183;28;19976;-57
2023/05/11 03:02:28;;;;;;;;;;;;;;;15.05;91.56;99936.63;5088447;28;20384;-57
2023/05/11 03:04:54;;;;;;;;;;;;;;;15.00;92.66;99939.56;5089624;28;20314;-57
2023/05/11 03:07:19;;;;;;;;;;;;;;;14.96;93.30;99934.44;5088628;28;19973;-57
2023/05/11 03:09:45;;;;;;;;;;;;;;;14.95;94.17;99932.69;5089394;28;19927;-57
2023/05/11 03:12:10;;;;;;;;;;;;;;;14.94;94.25;99939.00;5088932;28;20424;-56
2023/05/11 03:14:36;;;;;;;;;;;;;;;14.89;94.78;99933.88;5077015;28;20715;-57
2023/05/11 03:17:02;;;;;;;;;;;;;;;14.78;95.26;99930.88;5069444;28;20400;-57
2023/05/11 03:19:27;;;;;;;;;;;;;;;14.78;94.50;99928.19;5079893;28;20015;-57
2023/05/11 03:21:53;;;;;;;;;;;;;;;14.69;95.11;99935.84;5089149;28;19920;-57
2023/05/11 03:24:19;;;;;;;;;;;;;;;14.72;95.67;99939.22;5089711;28;19916;-56
2023/05/11 03:26:44;;;;;;;;;;;;;;;14.76;96.04;99931.91;5088870;28;19920;-57
2023/05/11 03:29:12;;;;;;;;;;;;;;;14.76;95.37;99932.75;5089310;28;19916;-57
2023/05/11 03:31:37;;;;;;;;;;;;;;;14.71;95.14;99940.16;5089197;28;19923;-57
2023/05/11 03:34:02;;;;;;;;;;;;;;;14.67;95.47;99929.69;5089627;28;19920;-57
2023/05/11 03:36:28;;;;;;;;;;;;;;;14.65;94.93;99927.09;5092693;28;19944;-56
2023/05/11 03:38:55;;;;;;;;;;;;;;;14.70;95.93;99926.84;5090840;28;19927;-55
2023/05/11 03:41:21;;;;;;;;;;;;;;;14.73;95.43;99924.88;5092087;28;19959;-55
2023/05/11 03:43:48;;;;;;;;;;;;;;;14.79;95.62;99924.59;5091879;28;19912;-55
2023/05/11 03:46:16;;;;;;;;;;;;;;;14.74;95.08;99926.63;5073954;28;20273;-55
2023/05/11 03:48:41;;;;;;;;;;;;;;;14.65;95.80;99929.75;5071527;28;20382;-56
2023/05/11 03:51:08;;;;;;;;;;;;;;;14.55;96.31;99928.50;5079083;28;19923;-56
2023/05/11 03:53:33;;;;;;;;;;;;;;;14.54;96.12;99926.78;5092321;28;19959;-56
2023/05/11 03:55:59;;;;;;;;;;;;;;;14.51;96.08;99921.56;5092692;28;20446;-56
2023/05/11 03:58:24;;;;;;;;;;;;;;;14.50;96.05;99919.81;5091573;28;19924;-55
2023/05/11 04:00:49;;;;;;;;;;;;;;;14.41;95.79;99926.50;5092466;28;19927;-56
2023/05/11 04:03:15;;;;;;;;;;;;;;;14.40;95.97;99915.88;5088632;28;19966;-55
2023/05/11 04:05:40;;;;;;;;;;;;;;;14.45;96.23;99917.38;5092239;28;20031;-56
2023/05/11 04:08:06;;;;;;;;;;;;;;;14.44;95.37;99922.81;5091019;28;20006;-55
2023/05/11 04:10:31;;;;;;;;;;;;;;;14.43;94.97;99919.25;5088521;28;19935;-56
2023/05/11 04:12:56;;;;;;;;;;;;;;;14.43;95.25;99921.94;5090747;28;19961;-55
2023/05/11 04:15:22;;;;;;;;;;;;;;;14.40;95.41;99924.78;5089980;28;20002;-56
2023/05/11 04:17:47;;;;;;;;;;;;;;;14.39;95.65;99927.53;5090911;28;19920;-56
2023/05/11 04:20:12;;;;;;;;;;;;;;;14.38;95.50;99923.13;5090543;28;19921;-56
2023/05/11 04:22:37;;;;;;;;;;;;;;;14.38;96.28;99921.31;5091398;28;20388;-56
2023/05/11 04:25:03;;;;;;;;;;;;;;;14.41;95.96;99925.66;5090510;28;19919;-56
2023/05/11 04:27:31;;;;;;;;;;;;;;;14.42;96.24;99925.56;5091924;28;19911;-56
2023/05/11 04:29:56;;;;;;;;;;;;;;;14.37;96.16;99927.59;5092007;28;19916;-56
2023/05/11 04:32:22;;;;;;;;;;;;;;;14.40;97.07;99918.53;5090650;28;19919;-56
2023/05/11 04:34:47;;;;;;;;;;;;;;;14.40;96.70;99927.44;5091740;28;19916;-56
2023/05/11 04:37:12;;;;;;;;;;;;;;;14.42;96.24;99927.38;5083213;28;19916;-56
2023/05/11 04:39:38;;;;;;;;;;;;;;;14.45;97.27;99924.53;5073271;28;19959;-56
2023/05/11 04:42:03;;;;;;;;;;;;;;;14.47;97.21;99922.66;5088501;28;20295;-56
2023/05/11 04:44:28;;;;;;;;;;;;;;;14.50;96.87;99923.38;5091156;28;19916;-56
2023/05/11 04:46:54;;;;;;;;;;;;;;;14.52;97.08;99926.84;5091288;28;19920;-56
2023/05/11 04:49:19;;;;;;;;;;;;;;;14.50;96.59;99926.06;5090599;28;19920;-56
2023/05/11 04:51:45;;;;;;;;;;;;;;;14.53;97.07;99935.72;5091895;28;20490;-56
2023/05/11 04:54:10;;;;;;;;;;;;;;;14.49;96.22;99934.16;5091258;28;19995;-56
2023/05/11 04:56:39;;;;;;;;;;;;;;;14.46;96.63;99934.31;5089793;28;19928;-57
2023/05/11 04:59:04;;;;;;;;;;;;;;;14.51;97.06;99937.63;5087314;28;19927;-57
2023/05/11 05:01:30;;;;;;;;;;;;;;;14.57;96.34;99931.97;5089757;28;20303;-57
2023/05/11 05:03:55;;;;;;;;;;;;;;;14.63;96.31;99931.66;5089875;28;19994;-57
2023/05/11 05:06:20;;;;;;;;;;;;;;;14.69;96.36;99933.16;5088965;28;19920;-57
2023/05/11 05:08:45;;;;;;;;;;;;;;;14.74;96.24;99932.00;5085475;28;19935;-57
2023/05/11 05:11:11;;;;;;;;;;;;;;;14.76;96.34;99938.09;5081665;28;19920;-57
2023/05/11 05:13:36;;;;;;;;;;;;;;;14.82;95.90;99937.81;5083887;28;19920;-57
2023/05/11 05:16:01;;;;;;;;;;;;;;;14.77;94.38;99945.22;5072532;28;19924;-57
2023/05/11 05:18:27;;;;;;;;;;;;;;;14.82;94.57;99943.19;5070781;28;20399;-57
2023/05/11 05:20:52;;;;;;;;;;;;;;;14.91;94.86;99940.00;5070730;28;19913;-57
2023/05/11 05:23:17;;;;;;;;;;;;;;;14.89;93.55;99949.94;5084219;28;20100;-57
2023/05/11 05:25:43;;;;;;;;;;;;;;;14.87;93.55;99946.50;5089986;28;19970;-56
2023/05/11 05:28:08;;;;;;;;;;;;;;;14.90;93.15;99950.81;5075099;28;19923;-56
2023/05/11 05:30:35;;;;;;;;;;;;;;;14.94;93.58;99949.72;5076095;28;19921;-56
2023/05/11 05:33:00;;;;;;;;;;;;;;;15.03;93.87;99958.16;5082517;28;19916;-56
2023/05/11 05:35:25;;;;;;;;;;;;;;;15.04;93.41;99946.47;5076514;28;19923;-56
2023/05/11 05:37:50;;;;;;;;;;;;;;;15.11;92.97;99947.88;5077342;28;19969;-56
2023/05/11 05:40:16;;;;;;;;;;;;;;;15.09;92.27;99946.25;5077914;28;20023;-56
2023/05/11 05:42:41;;;;;;;;;;;;;;;15.11;92.63;99950.56;5079713;28;19924;-57
2023/05/11 05:45:06;;;;;;;;;;;;;;;15.12;91.76;99957.66;5089156;28;19920;-57
2023/05/11 05:47:32;;;;;;;;;;;;;;;15.07;91.82;99951.69;5089510;28;20350;-57
2023/05/11 05:49:57;;;;;;;;;;;;;;;15.08;91.83;99955.22;5089102;28;20280;-57
2023/05/11 05:52:22;;;;;;;;;;;;;;;15.14;91.11;99957.59;5082803;28;19965;-57
2023/05/11 05:54:48;;;;;;;;;;;;;;;15.19;91.29;99959.06;5088921;28;20394;-57
2023/05/11 05:57:13;;;;;;;;;;;;;;;15.24;91.29;99958.81;5089465;28;19948;-57
2023/05/11 05:59:38;;;;;;;;;;;;;;;15.25;90.93;99958.78;5084945;28;19924;-57
2023/05/11 06:02:05;;;;;;;;;;;;;;;15.35;91.22;99959.16;5090073;28;20360;-57
2023/05/11 06:04:30;;;;;;;;;;;;;;;15.41;90.22;99965.09;5072429;28;19956;-57
2023/05/11 06:06:56;;;;;;;;;;;;;;;15.50;91.21;99959.22;5083196;28;19958;-57
2023/05/11 06:09:22;;;;;;;;;;;;;;;15.60;90.52;99955.09;5087380;28;20011;-57
2023/05/11 06:11:47;;;;;;;;;;;;;;;15.59;89.34;99961.41;5086333;28;20672;-57
2023/05/11 06:14:12;;;;;;;;;;;;;;;15.39;86.98;99958.94;5089280;28;19920;-57
2023/05/11 06:16:37;;;;;;;;;;;;;;;15.54;88.84;99962.59;5084945;28;19956;-56
2023/05/11 06:19:03;;;;;;;;;;;;;;;15.63;88.09;99960.28;5083891;28;20014;-56
2023/05/11 06:21:28;;;;;;;;;;;;;;;15.75;86.83;99962.31;5090002;28;20428;-56
2023/05/11 06:23:53;;;;;;;;;;;;;;;15.82;86.74;99965.53;5090348;28;19916;-56
2023/05/11 06:26:20;;;;;;;;;;;;;;;15.80;85.58;99964.75;5087606;28;20399;-56
2023/05/11 06:28:45;;;;;;;;;;;;;;;15.90;85.97;99963.28;5089593;28;20572;-56
2023/05/11 06:31:10;;;;;;;;;;;;;;;15.90;86.61;99978.53;5076997;28;19916;-56
2023/05/11 06:33:36;;;;;;;;;;;;;;;16.06;85.96;99968.69;5086862;28;20302;-56
2023/05/11 06:36:04;;;;;;;;;;;;;;;16.27;84.91;99972.84;5087404;28;20364;-56
2023/05/11 06:38:30;;;;;;;;;;;;;;;16.31;84.29;99966.38;5088988;28;19920;-56
2023/05/11 06:40:55;;;;;;;;;;;;;;;16.38;82.70;99960.56;5089241;28;19922;-57
2023/05/11 06:43:20;;;;;;;;;;;;;;;16.45;82.97;99971.81;5088902;28;20007;-56
2023/05/11 06:45:46;;;;;;;;;;;;;;;16.53;82.35;99973.13;5088622;28;19938;-56
2023/05/11 06:48:11;;;;;;;;;;;;;;;16.54;82.60;99960.59;5085191;28;19920;-57
2023/05/11 06:50:36;;;;;;;;;;;;;;;16.54;82.38;99971.31;5079200;28;19924;-57
2023/05/11 06:53:02;;;;;;;;;;;;;;;16.61;82.67;99968.19;5070645;28;20371;-56
2023/05/11 06:55:27;;;;;;;;;;;;;;;16.43;80.98;99969.22;5080585;28;19964;-57
2023/05/11 06:57:52;;;;;;;;;;;;;;;16.32;81.48;99970.78;5089699;28;19927;-56
2023/05/11 07:00:18;;;;;;;;;;;;;;;16.22;82.73;99967.75;5085777;28;19994;-56
2023/05/11 07:02:43;;;;;;;;;;;;;;;16.25;84.00;99964.00;5089465;28;19924;-56
2023/05/11 07:05:08;;;;;;;;;;;;;;;16.29;84.53;99970.94;5088993;28;19912;-56
2023/05/11 07:07:33;;;;;;;;;;;;;;;16.20;84.17;99975.00;5089431;28;19920;-56
2023/05/11 07:09:59;;;;;;;;;;;;;;;16.11;83.20;99963.94;5092916;28;19916;-56
2023/05/11 07:12:24;;;;;;;;;;;;;;;16.07;84.24;99965.91;5093490;28;20426;-56
2023/05/11 07:14:49;;;;;;;;;;;;;;;16.04;84.40;99967.91;5092304;28;19920;-56
2023/05/11 07:17:15;;;;;;;;;;;;;;;16.06;83.82;99963.31;5092394;28;19916;-56
2023/05/11 07:19:40;;;;;;;;;;;;;;;16.19;84.29;99967.06;5092980;28;19927;-56
2023/05/11 07:22:05;;;;;;;;;;;;;;;16.26;84.30;99960.41;5093022;28;19916;-56
2023/05/11 07:24:31;;;;;;;;;;;;;;;16.31;84.09;99963.69;5090970;28;20002;-56
2023/05/11 07:26:56;;;;;;;;;;;;;;;16.43;83.56;99968.34;5093013;28;19912;-56
2023/05/11 07:29:21;;;;;;;;;;;;;;;16.43;83.12;99968.34;5092631;28;19920;-56
2023/05/11 07:31:47;;;;;;;;;;;;;;;16.28;81.61;99963.81;5093161;28;19912;-56
2023/05/11 07:34:12;;;;;;;;;;;;;;;16.11;82.60;99971.97;5092146;28;19920;-56
2023/05/11 07:36:37;;;;;;;;;;;;;;;16.18;82.44;99970.66;5093083;28;19916;-56
2023/05/11 07:39:03;;;;;;;;;;;;;;;16.39;83.75;99972.16;5093094;28;20303;-56
2023/05/11 07:41:28;;;;;;;;;;;;;;;16.55;83.42;99968.56;5091865;28;20393;-56
2023/05/11 07:43:53;;;;;;;;;;;;;;;16.57;80.55;99977.34;5092169;28;20439;-56
2023/05/11 07:46:18;;;;;;;;;;;;;;;16.71;81.34;99973.88;5089553;28;20015;-56
2023/05/11 07:48:44;;;;;;;;;;;;;;;16.70;81.81;99970.34;5091698;28;19967;-56
2023/05/11 07:51:10;;;;;;;;;;;;;;;16.77;81.33;99982.44;5092425;28;19935;-56
2023/05/11 07:53:35;;;;;;;;;;;;;;;16.75;81.73;99970.06;5091529;28;19920;-56
2023/05/11 07:56:02;;;;;;;;;;;;;;;16.77;81.74;99968.19;5092592;28;19923;-56
2023/05/11 07:58:27;;;;;;;;;;;;;;;16.71;81.95;99979.25;5092382;28;19930;-56
2023/05/11 08:00:53;;;;;;;;;;;;;;;16.55;81.81;99973.91;5070516;28;19925;-56
2023/05/11 08:03:18;;;;;;;;;;;;;;;16.68;82.54;99974.06;5052396;28;19923;-56
2023/05/11 08:05:43;;;;;;;;;;;;;;;16.77;82.51;99978.91;5055859;28;19962;-56
2023/05/11 08:08:08;;;;;;;;;;;;;;;16.76;82.37;99971.78;5072167;28;20477;-56
2023/05/11 08:10:35;;;;;;;;;;;;;;;16.79;82.19;99972.47;5069507;28;20376;-56
2023/05/11 08:13:00;;;;;;;;;;;;;;;16.67;80.86;99980.41;5074734;28;19922;-57
2023/05/11 08:15:25;;;;;;;;;;;;;;;16.80;80.93;99976.03;5071252;28;19920;-57
2023/05/11 08:17:51;;;;;;;;;;;;;;;16.90;80.91;99985.31;5072109;28;19932;-56
2023/05/11 08:20:16;;;;;;;;;;;;;;;17.06;81.10;99976.25;5071221;28;19916;-56
2023/05/11 08:22:41;;;;;;;;;;;;;;;17.03;79.19;99976.41;5072002;28;20310;-56
2023/05/11 08:25:07;;;;;;;;;;;;;;;16.89;79.08;99980.88;5070915;28;19978;-56
2023/05/11 08:27:32;;;;;;;;;;;;;;;16.90;79.70;99974.56;5071871;28;19913;-56
2023/05/11 08:29:57;;;;;;;;;;;;;;;17.00;79.62;99978.44;5071666;28;20651;-56
2023/05/11 08:32:23;;;;;;;;;;;;;;;17.01;79.47;99975.66;5067936;28;19916;-57
2023/05/11 08:34:48;;;;;;;;;;;;;;;17.02;78.76;99974.69;5070912;28;19959;-57
2023/05/11 08:37:13;;;;;;;;;;;;;;;17.05;79.90;99973.63;5071819;28;19916;-57
2023/05/11 08:39:38;;;;;;;;;;;;;;;16.98;80.47;99983.03;5055145;28;19920;-57
2023/05/11 08:42:05;;;;;;;;;;;;;;;17.07;80.47;99979.78;5071650;28;19925;-57
2023/05/11 08:44:34;;;;;;;;;;;;;;;17.04;79.72;99982.66;5070378;28;20372;-57
2023/05/11 08:46:59;;;;;;;;;;;;;;;17.08;80.10;99978.84;5051644;28;19917;-57
2023/05/11 08:49:25;;;;;;;;;;;;;;;17.07;78.63;99982.47;5051286;28;19916;-57
2023/05/11 08:51:50;;;;;;;;;;;;;;;17.12;79.11;99988.44;5051399;28;19917;-57
2023/05/11 08:54:16;;;;;;;;;;;;;;;17.12;78.48;99980.38;5059209;28;19920;-57
2023/05/11 08:56:42;;;;;;;;;;;;;;;16.93;77.74;99985.97;5074492;28;19943;-57
2023/05/11 08:59:07;;;;;;;;;;;;;;;16.99;77.83;99991.00;5089719;28;20346;-57
2023/05/11 09:01:34;;;;;;;;;;;;;;;16.97;78.16;99983.97;5088288;28;19919;-57
2023/05/11 09:03:59;;;;;;;;;;;;;;;17.00;78.85;99981.13;5090435;28;19912;-57
2023/05/11 09:06:25;;;;;;;;;;;;;;;17.13;79.77;99983.94;5091519;28;20440;-57
2023/05/11 09:08:51;;;;;;;;;;;;;;;17.25;79.32;99977.81;5090086;28;19920;-57
2023/05/11 09:11:17;;;;;;;;;;;;;;;17.34;79.67;99986.19;5091288;28;19912;-57
2023/05/11 09:13:42;;;;;;;;;;;;;;;17.38;78.11;99982.34;5090918;28;20075;-57
2023/05/11 09:16:07;;;;;;;;;;;;;;;17.59;77.64;99975.72;5091519;28;19919;-57
2023/05/11 09:18:32;;;;;;;;;;;;;;;17.71;77.22;99976.78;5090835;28;20143;-56
2023/05/11 09:20:59;;;;;;;;;;;;;;;17.93;76.51;99980.72;5091314;28;19970;-56
2023/05/11 09:23:25;;;;;;;;;;;;;;;18.11;74.37;99976.84;5088976;28;19939;-56
2023/05/11 09:25:51;;;;;;;;;;;;;;;18.27;73.91;99974.91;5090288;28;20379;-56
2023/05/11 09:28:19;;;;;;;;;;;;;;;18.33;73.09;99979.03;5090944;28;19912;-56
2023/05/11 09:30:45;;;;;;;;;;;;;;;18.42;72.73;99966.84;5091053;28;20320;-56
2023/05/11 09:33:10;;;;;;;;;;;;;;;18.54;73.35;99971.41;5089588;28;20043;-57
2023/05/11 09:35:35;;;;;;;;;;;;;;;18.84;73.28;99972.06;5090701;28;20332;-56
2023/05/11 09:38:19;;;;;;;;;;;;;;;19.06;70.91;99969.66;5089874;28;19919;-56
2023/05/11 09:40:52;;;;;;;;;;;;;;;19.51;68.04;99975.47;5090894;28;20014;-56
2023/05/11 09:43:19;;;;;;;;;;;;;;;19.81;63.97;99966.19;5090940;28;19912;-57
2023/05/11 09:45:48;;;;;;;;;;;;;;;20.17;61.97;99959.06;5089784;28;20368;-57
2023/05/11 09:48:20;;;;;;;;;;;;;;;20.66;64.11;99970.69;5090847;28;19958;-57
2023/05/11 09:50:49;;;;;;;;;;;;;;;20.97;62.17;99952.16;5090679;28;19927;-57
2023/05/11 09:53:14;;;;;;;;;;;;;;;21.25;61.67;99957.22;5082448;28;19912;-57
2023/05/11 09:55:53;;;;;;;;;;;;;;;21.35;59.67;99958.22;5087127;28;20410;-57
2023/05/11 09:58:19;;;;;;;;;;;;;;;20.99;57.32;99953.78;5089885;28;19935;-57
2023/05/11 10:00:52;;;;;;;;;;;;;;;20.87;60.77;99960.94;5088724;28;20473;-56
2023/05/11 10:03:18;;;;;;;;;;;;;;;20.85;62.58;99960.22;5090760;28;19967;-57
2023/05/11 10:05:57;;;;;;;;;;;;;;;20.85;59.80;99949.41;5088402;28;20420;-56
2023/05/11 10:08:29;;;;;;;;;;;;;;;20.77;60.04;99948.25;5089270;28;20358;-57
2023/05/11 10:10:55;;;;;;;;;;;;;;;20.70;60.38;99945.16;5089922;28;19916;-57
2023/05/11 10:13:21;;;;;;;;;;;;;;;20.65;61.79;99941.94;5089471;28;19927;-57
2023/05/11 10:15:50;;;;;;;;;;;;;;;20.64;60.24;99944.75;5090187;28;19954;-57
2023/05/11 10:18:15;;;;;;;;;;;;;;;20.44;59.85;99945.38;5089703;28;19934;-57
2023/05/11 10:20:41;;;;;;;;;;;;;;;20.47;61.08;99943.31;5088778;28;20019;-57
2023/05/11 10:23:06;;;;;;;;;;;;;;;20.38;60.03;99937.69;5089883;28;19923;-56
2023/05/11 10:25:32;;;;;;;;;;;;;;;20.29;61.06;99943.78;5071631;28;20364;-57
2023/05/11 10:27:58;;;;;;;;;;;;;;;20.29;61.83;99939.25;5083920;28;19920;-57
2023/05/11 10:30:23;;;;;;;;;;;;;;;20.31;61.68;99948.09;5088053;28;20010;-57
2023/05/11 10:32:50;;;;;;;;;;;;;;;20.46;61.00;99941.56;5087085;28;19966;-57
2023/05/11 10:35:15;;;;;;;;;;;;;;;20.70;62.48;99937.03;5088038;28;20029;-57
2023/05/11 10:37:45;;;;;;;;;;;;;;;20.67;58.29;99939.94;5088067;28;19985;-56
2023/05/11 10:40:10;;;;;;;;;;;;;;;20.65;59.78;99936.53;5089074;28;19962;-56
2023/05/11 10:42:42;;;;;;;;;;;;;;;20.72;58.62;99932.34;5088269;28;19929;-57
2023/05/11 10:45:07;;;;;;;;;;;;;;;20.79;59.73;99930.94;5094011;28;19923;-57
2023/05/11 10:47:45;;;;;;;;;;;;;;;20.90;56.75;99925.56;5092573;28;20376;-56
2023/05/11 10:50:28;;;;;;;;;;;;;;;20.84;53.77;99922.47;5090593;28;20062;-57
2023/05/11 10:52:56;;;;;;;;;;;;;;;21.08;56.44;99926.03;5072647;28;19912;-55
2023/05/11 10:55:30;;;;;;;;;;;;;;;21.21;55.86;99928.66;5090575;28;19927;-56
2023/05/11 10:58:09;;;;;;;;;;;;;;;21.35;55.38;99925.75;5093067;28;19974;-56
2023/05/11 11:00:36;;;;;;;;;;;;;;;21.22;56.99;99915.00;5092276;28;20018;-57
2023/05/11 11:03:12;;;;;;;;;;;;;;;21.25;57.57;99930.16;5093116;28;19920;-57
2023/05/11 11:05:38;;;;;;;;;;;;;;;21.12;54.81;99927.50;5093393;28;20395;-57
2023/05/11 11:08:06;;;;;;;;;;;;;;;21.13;55.30;99923.84;5084710;28;19920;-56
2023/05/11 11:10:32;;;;;;;;;;;;;;;21.14;56.76;99919.28;5093127;28;19920;-56
2023/05/11 11:13:02;;;;;;;;;;;;;;;21.22;58.10;99925.00;5093585;28;20452;-57
2023/05/11 11:15:47;;;;;;;;;;;;;;;21.47;54.85;99922.06;5093292;28;19952;-57
2023/05/11 11:18:22;;;;;;;;;;;;;;;22.00;51.69;99913.28;5091941;28;19924;-57
2023/05/11 11:20:49;;;;;;;;;;;;;;;22.54;52.35;99913.31;5092376;28;20428;-57
2023/05/11 11:23:32;;;;;;;;;;;;;;;22.75;51.30;99912.38;5091312;28;19920;-57
2023/05/11 11:25:58;;;;;;;;;;;;;;;23.18;50.98;99918.59;5092679;28;20404;-57
2023/05/11 11:28:23;;;;;;;;;;;;;;;23.40;49.40;99909.50;5091526;28;19970;-57
2023/05/11 11:31:08;;;;;;;;;;;;;;;23.13;47.76;99901.84;5092841;28;19916;-57
2023/05/11 11:33:34;;;;;;;;;;;;;;;23.05;47.19;99898.06;5092809;28;19973;-57
2023/05/11 11:36:00;;;;;;;;;;;;;;;23.12;50.85;99894.72;5092612;28;20361;-57
2023/05/11 11:38:25;;;;;;;;;;;;;;;23.00;46.95;99893.06;5093263;28;20409;-57
2023/05/11 11:40:51;;;;;;;;;;;;;;;23.32;47.73;99879.47;5092224;28;19935;-58
2023/05/11 11:43:18;;;;;;;;;;;;;;;23.73;49.24;99883.97;5091960;28;19919;-58
2023/05/11 11:45:49;;;;;;;;;;;;;;;24.03;49.30;99881.25;5092671;28;19952;-58
2023/05/11 11:48:19;;;;;;;;;;;;;;;23.84;46.45;99878.47;5091901;28;20383;-57
2023/05/11 11:50:46;;;;;;;;;;;;;;;23.47;46.70;99872.69;5092665;28;20031;-57
2023/05/11 11:53:13;;;;;;;;;;;;;;;23.04;51.71;99880.97;5092855;28;20417;-57
2023/05/11 11:55:46;;;;;;;;;;;;;;;23.56;49.12;99876.47;5091394;28;20398;-57
2023/05/11 11:58:12;;;;;;;;;;;;;;;24.19;48.93;99876.16;5091739;28;20396;-60
2023/05/11 12:00:38;;;;;;;;;;;;;;;24.41;43.97;99876.81;5070593;28;19924;-58
2023/05/11 12:03:04;;;;;;;;;;;;;;;24.38;43.45;99870.78;5093023;28;19916;-58
2023/05/11 12:05:31;;;;;;;;;;;;;;;23.62;45.34;99870.47;5090595;28;20007;-57
2023/05/11 12:07:57;;;;;;;;;;;;;;;23.63;45.34;99866.75;5091505;28;19912;-57
2023/05/11 12:10:22;;;;;;;;;;;;;;;24.32;50.39;99868.59;5073351;28;20632;-58
2023/05/11 12:12:49;;;;;;;;;;;;;;;24.47;45.95;99859.03;5091006;28;19946;-58
2023/05/11 12:15:24;;;;;;;;;;;;;;;23.54;47.52;99856.72;5091440;28;19916;-58
2023/05/11 12:17:50;;;;;;;;;;;;;;;23.87;47.43;99854.56;5091171;28;19999;-57
2023/05/11 12:20:16;;;;;;;;;;;;;;;24.17;46.93;99856.41;5091180;28;20031;-57
2023/05/11 12:22:43;;;;;;;;;;;;;;;24.39;44.87;99854.31;5092292;28;19962;-58
2023/05/11 12:25:10;;;;;;;;;;;;;;;24.87;44.79;99850.78;5091449;28;20638;-58
2023/05/11 12:27:44;;;;;;;;;;;;;;;24.85;45.50;99848.22;5089401;28;20288;-58
2023/05/11 12:30:17;;;;;;;;;;;;;;;25.19;43.68;99838.56;5090369;28;20295;-58
2023/05/11 12:32:43;;;;;;;;;;;;;;;25.15;43.71;99836.28;5091958;28;19920;-58
2023/05/11 12:35:08;;;;;;;;;;;;;;;25.41;43.61;99838.25;5091291;28;19923;-58
2023/05/11 12:37:33;;;;;;;;;;;;;;;25.56;43.93;99831.34;5092043;28;19915;-58
2023/05/11 12:39:59;;;;;;;;;;;;;;;25.61;43.72;99830.88;5090938;28;19920;-58
2023/05/11 12:42:24;;;;;;;;;;;;;;;25.54;43.10;99829.75;5091671;28;19916;-58
2023/05/11 12:44:50;;;;;;;;;;;;;;;25.37;44.60;99834.09;5091797;28;20405;-56